createdAt,value
2017-06-19T00:00:27.888Z,0
2017-06-19T00:01:27.257Z,0
2017-06-19T00:02:27.563Z,0
2017-06-19T00:03:27.562Z,0
2017-06-19T00:04:27.554Z,0
2017-06-19T00:05:27.539Z,0
2017-06-19T00:06:27.879Z,0
2017-06-19T00:07:27.836Z,0
2017-06-19T00:08:27.200Z,0
2017-06-19T00:09:27.191Z,0
2017-06-19T00:10:27.806Z,0
2017-06-19T00:11:27.798Z,0
2017-06-19T00:12:28.104Z,0
2017-06-19T00:13:27.472Z,0
2017-06-19T00:14:27.457Z,0
2017-06-19T00:15:27.758Z,0
2017-06-19T00:16:27.138Z,0
2017-06-19T00:17:27.746Z,0
2017-06-19T00:18:27.116Z,0
2017-06-19T00:19:27.103Z,0
2017-06-19T00:20:27.720Z,0
2017-06-19T00:21:27.707Z,0
2017-06-19T00:22:27.068Z,0
2017-06-19T00:23:27.377Z,0
2017-06-19T00:24:27.058Z,0
2017-06-19T00:25:27.674Z,0
2017-06-19T00:26:27.667Z,0
2017-06-19T00:27:27.649Z,0
2017-06-19T00:28:27.328Z,0
2017-06-19T00:29:27.647Z,0
2017-06-19T00:30:27.625Z,0
2017-06-19T00:31:27.614Z,0
2017-06-19T00:32:27.607Z,0
2017-06-19T00:33:27.287Z,0
2017-06-19T00:34:27.587Z,0
2017-06-19T00:35:27.588Z,0
2017-06-19T00:36:27.625Z,0
2017-06-19T00:37:27.565Z,0
2017-06-19T00:38:27.240Z,0
2017-06-19T00:39:27.228Z,0
2017-06-19T00:40:27.224Z,0
2017-06-19T00:41:27.528Z,0
2017-06-19T00:42:27.520Z,0
2017-06-19T00:43:27.511Z,0
2017-06-19T00:44:27.503Z,0
2017-06-19T00:45:27.182Z,0
2017-06-19T00:46:27.481Z,0
2017-06-19T00:47:27.469Z,0
2017-06-19T00:48:26.837Z,0
2017-06-19T00:49:26.827Z,0
2017-06-19T00:50:27.128Z,0
2017-06-19T00:51:26.818Z,0
2017-06-19T00:52:27.438Z,0
2017-06-19T00:53:27.104Z,0
2017-06-19T00:54:27.416Z,0
2017-06-19T00:55:27.094Z,0
2017-06-19T00:56:26.767Z,0
2017-06-19T00:57:27.385Z,0
2017-06-19T00:58:27.368Z,0
2017-06-19T00:59:26.740Z,0
2017-06-19T01:00:27.349Z,0
2017-06-19T01:01:26.403Z,0
2017-06-19T01:02:27.645Z,0
2017-06-19T01:03:27.323Z,0
2017-06-19T01:04:26.690Z,0
2017-06-19T01:05:26.987Z,0
2017-06-19T01:06:27.334Z,0
2017-06-19T01:07:26.665Z,0
2017-06-19T01:08:26.965Z,0
2017-06-19T01:09:27.260Z,0
2017-06-19T01:10:26.948Z,0
2017-06-19T01:11:27.245Z,0
2017-06-19T01:12:26.931Z,0
2017-06-19T01:13:27.249Z,0
2017-06-19T01:14:27.219Z,0
2017-06-19T01:15:26.929Z,0
2017-06-19T01:16:27.204Z,0
2017-06-19T01:17:27.199Z,0
2017-06-19T01:18:26.870Z,0
2017-06-19T01:19:27.169Z,0
2017-06-19T01:20:26.853Z,0
2017-06-19T01:21:26.526Z,0
2017-06-19T01:22:26.840Z,0
2017-06-19T01:23:27.138Z,0
2017-06-19T01:24:26.818Z,0
2017-06-19T01:25:26.484Z,0
2017-06-19T01:26:27.110Z,0
2017-06-19T01:27:26.478Z,0
2017-06-19T01:28:27.088Z,0
2017-06-19T01:29:26.966Z,0
2017-06-19T01:30:26.449Z,0
2017-06-19T01:31:27.069Z,0
2017-06-19T01:32:26.741Z,0
2017-06-19T01:33:26.421Z,0
2017-06-19T01:34:27.033Z,0
2017-06-19T01:35:27.024Z,0
2017-06-19T01:36:27.016Z,0
2017-06-19T01:37:26.694Z,0
2017-06-19T01:38:27.312Z,0
2017-06-19T01:39:26.673Z,0
2017-06-19T01:40:26.660Z,0
2017-06-19T01:41:26.649Z,0
2017-06-19T01:42:26.674Z,0
2017-06-19T01:43:26.636Z,0
2017-06-19T01:44:26.937Z,0
2017-06-19T01:45:26.927Z,0
2017-06-19T01:46:27.232Z,0
2017-06-19T01:47:27.224Z,0
2017-06-19T01:48:27.208Z,0
2017-06-19T01:49:26.583Z,0
2017-06-19T01:50:26.877Z,0
2017-06-19T01:51:26.873Z,0
2017-06-19T01:52:26.857Z,0
2017-06-19T01:53:26.587Z,0
2017-06-19T01:54:26.528Z,0
2017-06-19T01:55:26.832Z,0
2017-06-19T01:56:26.819Z,0
2017-06-19T01:57:26.183Z,0
2017-06-19T01:58:26.803Z,0
2017-06-19T01:59:26.473Z,0
2017-06-19T02:00:27.102Z,0
2017-06-19T02:01:26.459Z,0
2017-06-19T02:02:27.079Z,0
2017-06-19T02:03:26.126Z,0
2017-06-19T02:04:26.117Z,0
2017-06-19T02:05:26.734Z,0
2017-06-19T02:06:26.729Z,0
2017-06-19T02:07:26.717Z,0
2017-06-19T02:08:26.389Z,0
2017-06-19T02:09:26.082Z,0
2017-06-19T02:10:27.002Z,0
2017-06-19T02:11:26.061Z,0
2017-06-19T02:12:26.668Z,0
2017-06-19T02:13:26.653Z,0
2017-06-19T02:14:26.339Z,0
2017-06-19T02:15:26.950Z,0
2017-06-19T02:16:26.628Z,0
2017-06-19T02:17:26.302Z,0
2017-06-19T02:18:25.671Z,0
2017-06-19T02:19:26.595Z,0
2017-06-19T02:20:26.598Z,0
2017-06-19T02:21:26.574Z,0
2017-06-19T02:22:26.584Z,0
2017-06-19T02:23:26.246Z,0
2017-06-19T02:24:26.244Z,0
2017-06-19T02:25:26.547Z,0
2017-06-19T02:26:26.221Z,0
2017-06-19T02:27:26.826Z,0
2017-06-19T02:28:26.830Z,0
2017-06-19T02:29:26.812Z,0
2017-06-19T02:30:26.186Z,0
2017-06-19T02:31:26.517Z,0
2017-06-19T02:32:26.156Z,0
2017-06-19T02:33:26.150Z,0
2017-06-19T02:34:26.523Z,0
2017-06-19T02:35:26.138Z,0
2017-06-19T02:36:26.434Z,0
2017-06-19T02:37:25.801Z,0
2017-06-19T02:38:25.481Z,0
2017-06-19T02:39:26.092Z,0
2017-06-19T02:40:26.414Z,0
2017-06-19T02:41:26.390Z,0
2017-06-19T02:42:26.064Z,0
2017-06-19T02:43:26.065Z,0
2017-06-19T02:44:26.048Z,0
2017-06-19T02:45:26.030Z,0
2017-06-19T02:46:26.678Z,0
2017-06-19T02:47:26.330Z,0
2017-06-19T02:48:26.352Z,0
2017-06-19T02:49:25.673Z,0
2017-06-19T02:50:26.001Z,0
2017-06-19T02:51:26.285Z,0
2017-06-19T02:52:26.027Z,0
2017-06-19T02:53:26.262Z,0
2017-06-19T02:54:26.252Z,0
2017-06-19T02:55:26.556Z,0
2017-06-19T02:56:26.548Z,0
2017-06-19T02:57:26.545Z,0
2017-06-19T02:58:26.213Z,0
2017-06-19T02:59:26.512Z,0
2017-06-19T03:00:26.192Z,0
2017-06-19T03:01:25.869Z,0
2017-06-19T03:02:26.173Z,0
2017-06-19T03:03:25.544Z,0
2017-06-19T03:04:25.840Z,0
2017-06-19T03:05:26.149Z,0
2017-06-19T03:06:26.137Z,0
2017-06-19T03:07:25.813Z,0
2017-06-19T03:08:25.809Z,0
2017-06-19T03:09:26.109Z,0
2017-06-19T03:10:25.783Z,0
2017-06-19T03:11:25.768Z,0
2017-06-19T03:12:26.121Z,0
2017-06-19T03:13:25.130Z,5
2017-06-19T03:14:25.751Z,5
2017-06-19T03:15:26.359Z,5
2017-06-19T03:16:25.723Z,5
2017-06-19T03:17:25.406Z,5
2017-06-19T03:18:25.392Z,5
2017-06-19T03:19:26.008Z,5
2017-06-19T03:20:25.681Z,5
2017-06-19T03:21:25.675Z,5
2017-06-19T03:22:25.363Z,5
2017-06-19T03:23:25.655Z,5
2017-06-19T03:24:25.954Z,5
2017-06-19T03:25:25.633Z,10
2017-06-19T03:26:25.626Z,10
2017-06-19T03:27:25.637Z,10
2017-06-19T03:28:26.225Z,10
2017-06-19T03:29:25.791Z,10
2017-06-19T03:30:25.896Z,10
2017-06-19T03:31:25.892Z,10
2017-06-19T03:32:25.611Z,10
2017-06-19T03:33:25.862Z,10
2017-06-19T03:34:25.863Z,10
2017-06-19T03:35:26.151Z,10
2017-06-19T03:36:25.844Z,15
2017-06-19T03:37:25.814Z,15
2017-06-19T03:38:25.538Z,15
2017-06-19T03:39:25.797Z,15
2017-06-19T03:40:24.851Z,15
2017-06-19T03:41:25.779Z,15
2017-06-19T03:42:26.096Z,15
2017-06-19T03:43:25.454Z,15
2017-06-19T03:44:25.432Z,15
2017-06-19T03:45:25.435Z,20
2017-06-19T03:46:25.724Z,20
2017-06-19T03:47:25.722Z,20
2017-06-19T03:48:25.398Z,20
2017-06-19T03:49:25.392Z,20
2017-06-19T03:50:25.375Z,20
2017-06-19T03:51:25.047Z,20
2017-06-19T03:52:25.044Z,20
2017-06-19T03:53:25.656Z,25
2017-06-19T03:54:25.333Z,25
2017-06-19T03:55:25.325Z,25
2017-06-19T03:56:25.320Z,25
2017-06-19T03:57:25.691Z,25
2017-06-19T03:58:25.306Z,25
2017-06-19T03:59:25.948Z,25
2017-06-19T04:00:24.973Z,25
2017-06-19T04:01:25.904Z,25
2017-06-19T04:02:24.951Z,30
2017-06-19T04:03:25.940Z,30
2017-06-19T04:04:25.232Z,30
2017-06-19T04:05:25.576Z,30
2017-06-19T04:06:25.870Z,30
2017-06-19T04:07:25.513Z,30
2017-06-19T04:08:24.899Z,30
2017-06-19T04:09:24.887Z,30
2017-06-19T04:10:25.521Z,30
2017-06-19T04:11:25.502Z,30
2017-06-19T04:12:25.510Z,30
2017-06-19T04:13:25.190Z,35
2017-06-19T04:14:25.778Z,35
2017-06-19T04:15:25.447Z,35
2017-06-19T04:16:25.115Z,35
2017-06-19T04:17:25.737Z,35
2017-06-19T04:18:25.134Z,35
2017-06-19T04:19:25.086Z,35
2017-06-19T04:20:25.386Z,35
2017-06-19T04:21:24.749Z,35
2017-06-19T04:22:25.051Z,35
2017-06-19T04:23:25.672Z,35
2017-06-19T04:24:25.343Z,35
2017-06-19T04:25:25.665Z,35
2017-06-19T04:26:24.700Z,40
2017-06-19T04:27:25.027Z,40
2017-06-19T04:28:24.991Z,40
2017-06-19T04:29:25.609Z,40
2017-06-19T04:30:24.972Z,40
2017-06-19T04:31:24.655Z,40
2017-06-19T04:32:25.270Z,40
2017-06-19T04:33:25.266Z,40
2017-06-19T04:34:24.618Z,40
2017-06-19T04:35:25.560Z,40
2017-06-19T04:36:25.590Z,40
2017-06-19T04:37:24.962Z,40
2017-06-19T04:38:24.890Z,40
2017-06-19T04:39:24.886Z,40
2017-06-19T04:40:25.214Z,40
2017-06-19T04:41:24.867Z,45
2017-06-19T04:42:24.865Z,45
2017-06-19T04:43:24.862Z,45
2017-06-19T04:44:25.168Z,45
2017-06-19T04:45:25.134Z,45
2017-06-19T04:46:24.882Z,45
2017-06-19T04:47:24.493Z,45
2017-06-19T04:48:25.108Z,45
2017-06-19T04:49:24.792Z,45
2017-06-19T04:50:24.465Z,45
2017-06-19T04:51:24.456Z,45
2017-06-19T04:52:25.073Z,45
2017-06-19T04:53:25.068Z,45
2017-06-19T04:54:24.739Z,45
2017-06-19T04:55:24.743Z,45
2017-06-19T04:56:24.724Z,45
2017-06-19T04:57:24.710Z,50
2017-06-19T04:58:24.416Z,50
2017-06-19T04:59:25.324Z,50
2017-06-19T05:00:24.685Z,50
2017-06-19T05:01:24.989Z,50
2017-06-19T05:02:24.355Z,50
2017-06-19T05:03:25.281Z,50
2017-06-19T05:04:24.955Z,50
2017-06-19T05:05:24.950Z,50
2017-06-19T05:06:24.942Z,50
2017-06-19T05:07:25.241Z,50
2017-06-19T05:08:25.230Z,50
2017-06-19T05:09:24.594Z,50
2017-06-19T05:10:24.278Z,50
2017-06-19T05:11:24.575Z,50
2017-06-19T05:12:24.265Z,50
2017-06-19T05:13:24.555Z,55
2017-06-19T05:14:24.879Z,55
2017-06-19T05:15:24.543Z,55
2017-06-19T05:16:24.842Z,55
2017-06-19T05:17:24.527Z,55
2017-06-19T05:18:24.509Z,55
2017-06-19T05:19:24.819Z,55
2017-06-19T05:20:24.491Z,55
2017-06-19T05:21:25.113Z,55
2017-06-19T05:22:24.161Z,55
2017-06-19T05:23:24.461Z,55
2017-06-19T05:24:24.771Z,55
2017-06-19T05:25:24.449Z,55
2017-06-19T05:26:24.440Z,55
2017-06-19T05:27:24.429Z,55
2017-06-19T05:28:24.107Z,55
2017-06-19T05:29:25.121Z,55
2017-06-19T05:30:25.066Z,60
2017-06-19T05:31:24.387Z,60
2017-06-19T05:32:24.702Z,60
2017-06-19T05:33:24.368Z,60
2017-06-19T05:34:24.050Z,60
2017-06-19T05:35:24.666Z,60
2017-06-19T05:36:24.664Z,60
2017-06-19T05:37:24.026Z,60
2017-06-19T05:38:23.709Z,60
2017-06-19T05:39:24.316Z,60
2017-06-19T05:40:24.319Z,60
2017-06-19T05:41:23.990Z,60
2017-06-19T05:42:24.608Z,60
2017-06-19T05:43:23.967Z,60
2017-06-19T05:44:24.009Z,60
2017-06-19T05:45:23.963Z,60
2017-06-19T05:46:24.570Z,60
2017-06-19T05:47:24.567Z,65
2017-06-19T05:48:24.233Z,65
2017-06-19T05:49:23.921Z,65
2017-06-19T05:50:24.534Z,65
2017-06-19T05:51:23.900Z,65
2017-06-19T05:52:24.206Z,65
2017-06-19T05:53:24.506Z,65
2017-06-19T05:54:24.497Z,65
2017-06-19T05:55:24.491Z,65
2017-06-19T05:56:24.838Z,65
2017-06-19T05:57:24.782Z,65
2017-06-19T05:58:24.469Z,65
2017-06-19T05:59:23.520Z,65
2017-06-19T06:00:24.764Z,65
2017-06-19T06:01:24.441Z,65
2017-06-19T06:02:24.432Z,65
2017-06-19T06:03:24.425Z,65
2017-06-19T06:04:24.408Z,65
2017-06-19T06:05:24.097Z,65
2017-06-19T06:06:24.390Z,65
2017-06-19T06:07:24.089Z,65
2017-06-19T06:08:23.754Z,65
2017-06-19T06:09:23.744Z,65
2017-06-19T06:10:24.359Z,65
2017-06-19T06:11:24.359Z,65
2017-06-19T06:12:24.658Z,65
2017-06-19T06:13:24.339Z,65
2017-06-19T06:14:24.327Z,65
2017-06-19T06:15:24.016Z,135
2017-06-19T06:16:24.622Z,480
2017-06-19T06:17:24.301Z,845
2017-06-19T06:18:24.607Z,860
2017-06-19T06:19:23.981Z,715
2017-06-19T06:20:24.278Z,685
2017-06-19T06:21:24.280Z,770
2017-06-19T06:22:23.638Z,830
2017-06-19T06:23:24.267Z,575
2017-06-19T06:24:24.560Z,335
2017-06-19T06:25:24.249Z,235
2017-06-19T06:26:23.925Z,90
2017-06-19T06:27:23.919Z,70
2017-06-19T06:28:24.534Z,70
2017-06-19T06:29:24.217Z,70
2017-06-19T06:30:23.893Z,70
2017-06-19T06:31:24.205Z,70
2017-06-19T06:32:24.193Z,70
2017-06-19T06:33:24.510Z,70
2017-06-19T06:34:23.872Z,70
2017-06-19T06:35:23.863Z,70
2017-06-19T06:36:23.856Z,70
2017-06-19T06:37:24.165Z,70
2017-06-19T06:38:23.530Z,75
2017-06-19T06:39:23.525Z,75
2017-06-19T06:40:23.515Z,75
2017-06-19T06:41:24.138Z,75
2017-06-19T06:42:24.133Z,75
2017-06-19T06:43:24.119Z,120
2017-06-19T06:44:23.801Z,430
2017-06-19T06:45:24.421Z,900
2017-06-19T06:46:23.798Z,1145
2017-06-19T06:47:23.472Z,1180
2017-06-19T06:48:23.459Z,1150
2017-06-19T06:49:24.081Z,1105
2017-06-19T06:50:23.765Z,1090
2017-06-19T06:51:24.096Z,1045
2017-06-19T06:52:23.752Z,760
2017-06-19T06:53:24.058Z,380
2017-06-19T06:54:24.058Z,125
2017-06-19T06:55:24.063Z,100
2017-06-19T06:56:23.422Z,95
2017-06-19T06:57:23.733Z,90
2017-06-19T06:58:24.352Z,90
2017-06-19T06:59:23.111Z,90
2017-06-19T07:00:23.716Z,90
2017-06-19T07:01:23.391Z,90
2017-06-19T07:02:23.384Z,90
2017-06-19T07:03:23.385Z,120
2017-06-19T07:04:23.375Z,95
2017-06-19T07:05:24.000Z,90
2017-06-19T07:06:23.676Z,90
2017-06-19T07:07:24.303Z,95
2017-06-19T07:08:24.294Z,95
2017-06-19T07:09:23.994Z,95
2017-06-19T07:10:23.675Z,95
2017-06-19T07:11:23.656Z,95
2017-06-19T07:12:23.961Z,95
2017-06-19T07:13:23.954Z,175
2017-06-19T07:14:23.013Z,500
2017-06-19T07:15:23.322Z,880
2017-06-19T07:16:23.631Z,1170
2017-06-19T07:17:23.932Z,1280
2017-06-19T07:18:23.929Z,1320
2017-06-19T07:19:23.921Z,1370
2017-06-19T07:20:23.607Z,1435
2017-06-19T07:21:23.915Z,1470
2017-06-19T07:22:23.914Z,1460
2017-06-19T07:23:23.916Z,1410
2017-06-19T07:24:23.598Z,1325
2017-06-19T07:25:23.905Z,1305
2017-06-19T07:26:23.584Z,1350
2017-06-19T07:27:23.897Z,1370
2017-06-19T07:28:24.208Z,1350
2017-06-19T07:29:23.785Z,1355
2017-06-19T07:30:23.897Z,1395
2017-06-19T07:31:23.265Z,1415
2017-06-19T07:32:23.580Z,1445
2017-06-19T07:33:23.884Z,1430
2017-06-19T07:34:23.263Z,1460
2017-06-19T07:35:23.259Z,1480
2017-06-19T07:36:23.577Z,1455
2017-06-19T07:37:23.883Z,1430
2017-06-19T07:38:23.880Z,1460
2017-06-19T07:39:23.882Z,1490
2017-06-19T07:40:23.257Z,1385
2017-06-19T07:41:23.565Z,1210
2017-06-19T07:42:23.878Z,1125
2017-06-19T07:43:23.562Z,1210
2017-06-19T07:44:23.576Z,1365
2017-06-19T07:45:24.198Z,1500
2017-06-19T07:46:23.265Z,1560
2017-06-19T07:47:23.575Z,1615
2017-06-19T07:48:23.609Z,1645
2017-06-19T07:49:23.269Z,1660
2017-06-19T07:50:23.575Z,1690
2017-06-19T07:51:23.581Z,1680
2017-06-19T07:52:23.577Z,1650
2017-06-19T07:53:24.206Z,1670
2017-06-19T07:54:23.896Z,1630
2017-06-19T07:55:23.589Z,1570
2017-06-19T07:56:23.894Z,1585
2017-06-19T07:57:24.280Z,1590
2017-06-19T07:58:23.901Z,1600
2017-06-19T07:59:23.585Z,1620
2017-06-19T08:00:23.594Z,1635
2017-06-19T08:01:24.225Z,1610
2017-06-19T08:02:23.592Z,1650
2017-06-19T08:03:23.917Z,1710
2017-06-19T08:04:23.923Z,1745
2017-06-19T08:05:24.239Z,1785
2017-06-19T08:06:23.607Z,1820
2017-06-19T08:07:23.929Z,1805
2017-06-19T08:08:24.279Z,1795
2017-06-19T08:09:23.621Z,1790
2017-06-19T08:10:23.926Z,1750
2017-06-19T08:11:23.928Z,1650
2017-06-19T08:12:23.624Z,1570
2017-06-19T08:13:23.936Z,1580
2017-06-19T08:14:23.941Z,1645
2017-06-19T08:15:23.942Z,1685
2017-06-19T08:16:23.630Z,1725
2017-06-19T08:17:24.264Z,1775
2017-06-19T08:18:23.638Z,1790
2017-06-19T08:19:23.018Z,1810
2017-06-19T08:20:23.644Z,1810
2017-06-19T08:21:23.642Z,1825
2017-06-19T08:22:24.281Z,1870
2017-06-19T08:23:23.343Z,1865
2017-06-19T08:24:23.967Z,1810
2017-06-19T08:25:24.292Z,1770
2017-06-19T08:26:23.981Z,1790
2017-06-19T08:27:23.676Z,1825
2017-06-19T08:28:23.078Z,1860
2017-06-19T08:29:23.682Z,1870
2017-06-19T08:30:23.681Z,1860
2017-06-19T08:31:23.686Z,1845
2017-06-19T08:32:23.688Z,1790
2017-06-19T08:33:24.001Z,1780
2017-06-19T08:34:23.694Z,1800
2017-06-19T08:35:23.696Z,1835
2017-06-19T08:36:24.327Z,1890
2017-06-19T08:37:24.010Z,1930
2017-06-19T08:38:23.707Z,1975
2017-06-19T08:39:24.021Z,2005
2017-06-19T08:40:23.718Z,1990
2017-06-19T08:41:24.030Z,2000
2017-06-19T08:42:24.043Z,1970
2017-06-19T08:43:23.719Z,1905
2017-06-19T08:44:23.095Z,1850
2017-06-19T08:45:23.727Z,1820
2017-06-19T08:46:23.452Z,1855
2017-06-19T08:47:24.048Z,1950
2017-06-19T08:48:23.747Z,2030
2017-06-19T08:49:24.064Z,1985
2017-06-19T08:50:23.749Z,1815
2017-06-19T08:51:23.762Z,1510
2017-06-19T08:52:24.429Z,890
2017-06-19T08:53:23.762Z,470
2017-06-19T08:54:24.079Z,600
2017-06-19T08:55:23.770Z,655
2017-06-19T08:56:24.090Z,410
2017-06-19T08:57:24.085Z,500
2017-06-19T08:58:24.088Z,570
2017-06-19T08:59:23.783Z,545
2017-06-19T09:00:24.104Z,210
2017-06-19T09:01:23.786Z,200
2017-06-19T09:02:23.792Z,155
2017-06-19T09:03:24.134Z,420
2017-06-19T09:04:24.107Z,535
2017-06-19T09:05:24.107Z,275
2017-06-19T09:06:24.422Z,180
2017-06-19T09:07:23.486Z,330
2017-06-19T09:08:23.486Z,575
2017-06-19T09:09:24.118Z,890
2017-06-19T09:10:23.805Z,635
2017-06-19T09:11:23.493Z,700
2017-06-19T09:12:24.128Z,1170
2017-06-19T09:13:24.118Z,1510
2017-06-19T09:14:23.805Z,1905
2017-06-19T09:15:24.122Z,1980
2017-06-19T09:16:24.123Z,1970
2017-06-19T09:17:23.812Z,2030
2017-06-19T09:18:24.128Z,2040
2017-06-19T09:19:24.133Z,2050
2017-06-19T09:20:23.818Z,2010
2017-06-19T09:21:23.508Z,1975
2017-06-19T09:22:23.509Z,1985
2017-06-19T09:23:23.823Z,1970
2017-06-19T09:24:24.141Z,1995
2017-06-19T09:25:24.191Z,2030
2017-06-19T09:26:24.459Z,2045
2017-06-19T09:27:24.497Z,2040
2017-06-19T09:28:24.149Z,2035
2017-06-19T09:29:23.847Z,2055
2017-06-19T09:30:24.050Z,2145
2017-06-19T09:31:24.170Z,2170
2017-06-19T09:32:23.866Z,2185
2017-06-19T09:33:23.543Z,2175
2017-06-19T09:34:24.180Z,2225
2017-06-19T09:35:24.493Z,2255
2017-06-19T09:36:23.564Z,2205
2017-06-19T09:37:23.571Z,2155
2017-06-19T09:38:24.509Z,2190
2017-06-19T09:39:23.261Z,2305
2017-06-19T09:40:24.517Z,2360
2017-06-19T09:41:24.209Z,2320
2017-06-19T09:42:23.909Z,2280
2017-06-19T09:43:23.907Z,2210
2017-06-19T09:44:23.599Z,2175
2017-06-19T09:45:24.241Z,2165
2017-06-19T09:46:23.916Z,2210
2017-06-19T09:47:23.929Z,2265
2017-06-19T09:48:24.238Z,2275
2017-06-19T09:49:24.248Z,2255
2017-06-19T09:50:23.938Z,2230
2017-06-19T09:51:24.258Z,2205
2017-06-19T09:52:23.946Z,2200
2017-06-19T09:53:23.650Z,2215
2017-06-19T09:54:24.581Z,2245
2017-06-19T09:55:24.599Z,2240
2017-06-19T09:56:24.279Z,2235
2017-06-19T09:57:24.292Z,2235
2017-06-19T09:58:23.981Z,2225
2017-06-19T09:59:24.039Z,2210
2017-06-19T10:00:23.732Z,2210
2017-06-19T10:01:23.679Z,2190
2017-06-19T10:02:24.620Z,2195
2017-06-19T10:03:23.997Z,2210
2017-06-19T10:04:24.032Z,2230
2017-06-19T10:05:24.631Z,2265
2017-06-19T10:06:24.328Z,2300
2017-06-19T10:07:24.325Z,2330
2017-06-19T10:08:23.397Z,2305
2017-06-19T10:09:24.340Z,2250
2017-06-19T10:10:24.346Z,2270
2017-06-19T10:11:24.358Z,2250
2017-06-19T10:12:24.353Z,2255
2017-06-19T10:13:24.365Z,2250
2017-06-19T10:14:23.742Z,2250
2017-06-19T10:15:24.056Z,2280
2017-06-19T10:16:24.065Z,2310
2017-06-19T10:17:24.384Z,2345
2017-06-19T10:18:24.073Z,2345
2017-06-19T10:19:23.765Z,2350
2017-06-19T10:20:24.402Z,2320
2017-06-19T10:21:24.094Z,2310
2017-06-19T10:22:24.414Z,2310
2017-06-19T10:23:24.734Z,2325
2017-06-19T10:24:24.415Z,2320
2017-06-19T10:25:24.111Z,2315
2017-06-19T10:26:23.808Z,2330
2017-06-19T10:27:24.122Z,2305
2017-06-19T10:28:23.815Z,2290
2017-06-19T10:29:24.169Z,2255
2017-06-19T10:30:23.845Z,2235
2017-06-19T10:31:23.840Z,2260
2017-06-19T10:32:23.843Z,2285
2017-06-19T10:33:24.478Z,2295
2017-06-19T10:34:23.611Z,2275
2017-06-19T10:35:24.178Z,2265
2017-06-19T10:36:24.174Z,2255
2017-06-19T10:37:24.193Z,2220
2017-06-19T10:38:24.194Z,2210
2017-06-19T10:39:24.193Z,2165
2017-06-19T10:40:23.902Z,2160
2017-06-19T10:41:24.517Z,2190
2017-06-19T10:42:24.239Z,2195
2017-06-19T10:43:23.914Z,2205
2017-06-19T10:44:24.230Z,2230
2017-06-19T10:45:24.545Z,2230
2017-06-19T10:46:23.929Z,2235
2017-06-19T10:47:24.600Z,2235
2017-06-19T10:48:24.564Z,2230
2017-06-19T10:49:24.577Z,2250
2017-06-19T10:50:24.267Z,2235
2017-06-19T10:51:24.901Z,2250
2017-06-19T10:52:24.914Z,2265
2017-06-19T10:53:24.917Z,2255
2017-06-19T10:54:23.977Z,2240
2017-06-19T10:55:24.612Z,2270
2017-06-19T10:56:24.618Z,2295
2017-06-19T10:57:24.012Z,2250
2017-06-19T10:58:24.630Z,2185
2017-06-19T10:59:24.330Z,2145
2017-06-19T11:00:24.956Z,2165
2017-06-19T11:01:24.343Z,2265
2017-06-19T11:02:24.659Z,2325
2017-06-19T11:03:24.351Z,2330
2017-06-19T11:04:24.671Z,2260
2017-06-19T11:05:24.361Z,2190
2017-06-19T11:06:24.690Z,2215
2017-06-19T11:07:24.378Z,2285
2017-06-19T11:08:24.694Z,2340
2017-06-19T11:09:24.707Z,2305
2017-06-19T11:10:24.086Z,2235
2017-06-19T11:11:25.040Z,2215
2017-06-19T11:12:24.721Z,2235
2017-06-19T11:13:24.103Z,2280
2017-06-19T11:14:23.805Z,2280
2017-06-19T11:15:24.118Z,2270
2017-06-19T11:16:25.071Z,2255
2017-06-19T11:17:24.487Z,2255
2017-06-19T11:18:24.458Z,2240
2017-06-19T11:19:24.462Z,2240
2017-06-19T11:20:24.483Z,2240
2017-06-19T11:21:24.787Z,2240
2017-06-19T11:22:23.856Z,2220
2017-06-19T11:23:25.115Z,2170
2017-06-19T11:24:24.187Z,2160
2017-06-19T11:25:24.833Z,2135
2017-06-19T11:26:24.511Z,2170
2017-06-19T11:27:24.550Z,2270
2017-06-19T11:28:23.898Z,2300
2017-06-19T11:29:25.155Z,2335
2017-06-19T11:30:24.738Z,2310
2017-06-19T11:31:24.885Z,2285
2017-06-19T11:32:24.544Z,2305
2017-06-19T11:33:24.904Z,2375
2017-06-19T11:34:24.881Z,2435
2017-06-19T11:35:25.212Z,2460
2017-06-19T11:36:24.890Z,2450
2017-06-19T11:37:24.271Z,2380
2017-06-19T11:38:24.588Z,2280
2017-06-19T11:39:23.972Z,2195
2017-06-19T11:40:24.920Z,2215
2017-06-19T11:41:24.610Z,2265
2017-06-19T11:42:24.929Z,2300
2017-06-19T11:43:24.312Z,2275
2017-06-19T11:44:24.011Z,2240
2017-06-19T11:45:24.638Z,2130
2017-06-19T11:46:24.016Z,2070
2017-06-19T11:47:24.337Z,2075
2017-06-19T11:48:25.317Z,2125
2017-06-19T11:49:24.983Z,2200
2017-06-19T11:50:24.983Z,2255
2017-06-19T11:51:25.302Z,2305
2017-06-19T11:52:25.003Z,2335
2017-06-19T11:53:24.697Z,2300
2017-06-19T11:54:25.012Z,2275
2017-06-19T11:55:25.041Z,2255
2017-06-19T11:56:24.707Z,2220
2017-06-19T11:57:25.037Z,2245
2017-06-19T11:58:25.042Z,2300
2017-06-19T11:59:24.731Z,2330
2017-06-19T12:00:24.427Z,2355
2017-06-19T12:01:25.065Z,2320
2017-06-19T12:02:25.378Z,2315
2017-06-19T12:03:24.764Z,2290
2017-06-19T12:04:25.397Z,2230
2017-06-19T12:05:24.157Z,2245
2017-06-19T12:06:25.099Z,2325
2017-06-19T12:07:25.418Z,2395
2017-06-19T12:08:24.485Z,2425
2017-06-19T12:09:25.113Z,2365
2017-06-19T12:10:24.812Z,2315
2017-06-19T12:11:25.129Z,2265
2017-06-19T12:12:24.829Z,2265
2017-06-19T12:13:24.833Z,2290
2017-06-19T12:14:25.153Z,2335
2017-06-19T12:15:25.162Z,2325
2017-06-19T12:16:25.478Z,2285
2017-06-19T12:17:24.849Z,2225
2017-06-19T12:18:24.858Z,2160
2017-06-19T12:19:25.182Z,2125
2017-06-19T12:20:25.186Z,2130
2017-06-19T12:21:24.888Z,2150
2017-06-19T12:22:25.231Z,2155
2017-06-19T12:23:25.207Z,2155
2017-06-19T12:24:25.233Z,2165
2017-06-19T12:25:24.923Z,2195
2017-06-19T12:26:24.600Z,2230
2017-06-19T12:27:24.610Z,2230
2017-06-19T12:28:24.933Z,2245
2017-06-19T12:29:25.248Z,2285
2017-06-19T12:30:25.573Z,2330
2017-06-19T12:31:25.267Z,2400
2017-06-19T12:32:24.648Z,2360
2017-06-19T12:33:24.963Z,2255
2017-06-19T12:34:25.602Z,2090
2017-06-19T12:35:25.604Z,2000
2017-06-19T12:36:25.315Z,2020
2017-06-19T12:37:25.314Z,2155
2017-06-19T12:38:25.337Z,2300
2017-06-19T12:39:25.335Z,2315
2017-06-19T12:40:25.329Z,2265
2017-06-19T12:41:25.027Z,2245
2017-06-19T12:42:25.343Z,2215
2017-06-19T12:43:25.030Z,2220
2017-06-19T12:44:25.351Z,2200
2017-06-19T12:45:25.045Z,2150
2017-06-19T12:46:25.064Z,2095
2017-06-19T12:47:25.065Z,2100
2017-06-19T12:48:25.697Z,2100
2017-06-19T12:49:25.079Z,2120
2017-06-19T12:50:25.392Z,2130
2017-06-19T12:51:25.401Z,2105
2017-06-19T12:52:25.415Z,2075
2017-06-19T12:53:25.424Z,2095
2017-06-19T12:54:25.115Z,2100
2017-06-19T12:55:25.751Z,2095
2017-06-19T12:56:25.121Z,2095
2017-06-19T12:57:24.828Z,2115
2017-06-19T12:58:25.144Z,2120
2017-06-19T12:59:25.148Z,2125
2017-06-19T13:00:24.841Z,2115
2017-06-19T13:01:24.847Z,2105
2017-06-19T13:02:24.851Z,2110
2017-06-19T13:03:25.808Z,2115
2017-06-19T13:04:25.496Z,2105
2017-06-19T13:05:25.194Z,2075
2017-06-19T13:06:25.825Z,2045
2017-06-19T13:07:25.216Z,2055
2017-06-19T13:08:25.531Z,2045
2017-06-19T13:09:25.847Z,2055
2017-06-19T13:10:24.910Z,2070
2017-06-19T13:11:25.231Z,2055
2017-06-19T13:12:24.612Z,1990
2017-06-19T13:13:25.246Z,1945
2017-06-19T13:14:24.950Z,1905
2017-06-19T13:15:25.259Z,1920
2017-06-19T13:16:25.895Z,1970
2017-06-19T13:17:25.589Z,2005
2017-06-19T13:18:25.287Z,2000
2017-06-19T13:19:24.665Z,1975
2017-06-19T13:20:24.987Z,1905
2017-06-19T13:21:25.943Z,1820
2017-06-19T13:22:25.309Z,1835
2017-06-19T13:23:25.314Z,1930
2017-06-19T13:24:25.632Z,1990
2017-06-19T13:25:25.963Z,2035
2017-06-19T13:26:25.657Z,2035
2017-06-19T13:27:25.352Z,2005
2017-06-19T13:28:25.352Z,1995
2017-06-19T13:29:25.673Z,1970
2017-06-19T13:30:25.571Z,1955
2017-06-19T13:31:25.375Z,1980
2017-06-19T13:32:25.061Z,2005
2017-06-19T13:33:25.069Z,2015
2017-06-19T13:34:25.703Z,1985
2017-06-19T13:35:25.093Z,1940
2017-06-19T13:36:25.411Z,1905
2017-06-19T13:37:25.095Z,1885
2017-06-19T13:38:25.450Z,1840
2017-06-19T13:39:25.744Z,1810
2017-06-19T13:40:25.749Z,1830
2017-06-19T13:41:25.443Z,1855
2017-06-19T13:42:25.442Z,1895
2017-06-19T13:43:25.766Z,1965
2017-06-19T13:44:25.460Z,1965
2017-06-19T13:45:25.151Z,1905
2017-06-19T13:46:25.793Z,1850
2017-06-19T13:47:25.168Z,1845
2017-06-19T13:48:25.172Z,1890
2017-06-19T13:49:25.485Z,1925
2017-06-19T13:50:25.195Z,1910
2017-06-19T13:51:25.817Z,1880
2017-06-19T13:52:25.825Z,1850
2017-06-19T13:53:25.519Z,1840